Mehmet Bey — 9HUD6 — position and weather

sailwx.info

Track history (hours):
 
Tides and Currents Weather Stations Pressure Air Temp Water Temp Dewpoint Dewpoint Depression Visibility Wind Speed Wind Dir Waves Ship Positions

Mehmet Bey

Last reported at 2017-Feb-11 08:33 UTC. Time now 2017-Feb-21 12:13 UTC.
Position N 36°30' E 014°06'.
Warning: this ship's position is 10 days out of date.

Length 131 m; draft 7.4 m.

Type: Cargo ship. MMSI: 248864000.

Date/timePositionNaut miles runAvg speedWind from/ knotsBaromVisibWave heightAir tempDewpointWater temp
2017-Feb-11 08:33N 36°30' E 014°06'8 8.5
2017-Feb-11 07:33N 36°28' E 014°16'9 8.9
2017-Feb-11 06:33N 36°24' E 014°26'9 9.1
2017-Feb-11 05:33N 36°22' E 014°37'  
2017-Feb-08 20:23N 37°22' E 023°57'8 9.5
2017-Feb-08 19:30N 37°29' E 024°02'9 9.9
2017-Feb-08 18:33N 37°37' E 024°08'1010.1
2017-Feb-08 17:33N 37°45' E 024°17'9 9.3
2017-Feb-08 16:33N 37°50' E 024°26'9 9.4
2017-Feb-08 15:33N 37°57' E 024°35'  
2017-Feb-03 12:33N 45°17' E 036°28'7 7.1
2017-Feb-03 11:33N 45°21' E 036°37'6 6.2
2017-Feb-03 10:33N 45°26' E 036°41'3 2.5
2017-Feb-03 09:28N 45°29' E 036°38'0 0.0
2017-Feb-03 08:31N 45°29' E 036°38'0 0.0
2017-Feb-03 07:31N 45°29' E 036°38'0 0.0
2017-Feb-03 06:31N 45°29' E 036°38'0 0.0
2017-Feb-03 05:31N 45°29' E 036°38'0 0.0
2017-Feb-03 04:31N 45°29' E 036°38'0 0.0
2017-Feb-03 03:31N 45°29' E 036°38'0 0.0
2017-Feb-03 02:31N 45°29' E 036°38'0 0.0
2017-Feb-03 01:28N 45°29' E 036°38'0 0.0
2017-Feb-03 00:31N 45°28' E 036°38'0 0.0
2017-Feb-02 23:28N 45°28' E 036°38'0 0.0
2017-Feb-02 22:28N 45°28' E 036°38'0 0.0
2017-Feb-02 21:31N 45°28' E 036°38'0 0.0
2017-Feb-02 20:28N 45°28' E 036°38'0 0.1
2017-Feb-02 19:31N 45°28' E 036°38'0 0.0
2017-Feb-02 18:31N 45°28' E 036°38'0 0.0
2017-Feb-02 17:31N 45°28' E 036°38'0 0.0
2017-Feb-02 16:31N 45°28' E 036°38'0 0.1
2017-Feb-02 15:25N 45°28' E 036°39'0 0.1
2017-Feb-02 14:13N 45°28' E 036°39'0 0.0
2017-Feb-02 13:25N 45°28' E 036°39'0 0.0
2017-Feb-02 12:31N 45°28' E 036°39'0 0.0
2017-Feb-02 11:28N 45°28' E 036°39'0 0.0
2017-Feb-02 09:28N 45°28' E 036°39'0 0.0
2017-Feb-02 06:25N 45°29' E 036°39'0 0.0
2017-Feb-02 05:22N 45°29' E 036°39'0 0.0
2017-Feb-02 04:31N 45°29' E 036°39'0 0.0
2017-Feb-02 03:31N 45°29' E 036°39'0 0.0
2017-Feb-02 02:31N 45°29' E 036°39'0 0.0
2017-Feb-02 01:25N 45°29' E 036°38'0 0.0
2017-Feb-01 23:31N 45°29' E 036°39'0 0.0
2017-Feb-01 20:10N 45°28' E 036°39'0 0.0
2017-Feb-01 14:25N 45°28' E 036°39'0 0.0
2017-Feb-01 12:31N 45°28' E 036°39'0 0.0
2017-Feb-01 11:31N 45°28' E 036°39'0 0.0
2017-Feb-01 10:31N 45°28' E 036°39'0 0.0
2017-Feb-01 09:31N 45°28' E 036°39'  
Track history (hours):
 
Tides and Currents Weather Stations Pressure Air Temp Water Temp Dewpoint Dewpoint Depression Visibility Wind Speed Wind Dir Waves Ship Positions

Mehmet Bey

Last reported at 2017-Feb-11 08:33 UTC. Time now 2017-Feb-21 12:13 UTC.
Position N 36°30' E 014°06'.
Warning: this ship's position is 10 days out of date.

Length 131 m; draft 7.4 m.

Type: Cargo ship. MMSI: 248864000.

Date/timePositionNaut miles runAvg speedWind from/ knotsBaromVisibWave heightAir tempDewpointWater temp
2017-Feb-11 08:33N 36°30' E 014°06'8 8.5
2017-Feb-11 07:33N 36°28' E 014°16'9 8.9
2017-Feb-11 06:33N 36°24' E 014°26'9 9.1
2017-Feb-11 05:33N 36°22' E 014°37'  
2017-Feb-08 20:23N 37°22' E 023°57'8 9.5
2017-Feb-08 19:30N 37°29' E 024°02'9 9.9
2017-Feb-08 18:33N 37°37' E 024°08'1010.1
2017-Feb-08 17:33N 37°45' E 024°17'9 9.3
2017-Feb-08 16:33N 37°50' E 024°26'9 9.4
2017-Feb-08 15:33N 37°57' E 024°35'  
2017-Feb-03 12:33N 45°17' E 036°28'7 7.1
2017-Feb-03 11:33N 45°21' E 036°37'6 6.2
2017-Feb-03 10:33N 45°26' E 036°41'3 2.5
2017-Feb-03 09:28N 45°29' E 036°38'0 0.0
2017-Feb-03 08:31N 45°29' E 036°38'0 0.0
2017-Feb-03 07:31N 45°29' E 036°38'0 0.0
2017-Feb-03 06:31N 45°29' E 036°38'0 0.0
2017-Feb-03 05:31N 45°29' E 036°38'0 0.0
2017-Feb-03 04:31N 45°29' E 036°38'0 0.0
2017-Feb-03 03:31N 45°29' E 036°38'0 0.0
2017-Feb-03 02:31N 45°29' E 036°38'0 0.0
2017-Feb-03 01:28N 45°29' E 036°38'0 0.0
2017-Feb-03 00:31N 45°28' E 036°38'0 0.0
2017-Feb-02 23:28N 45°28' E 036°38'0 0.0
2017-Feb-02 22:28N 45°28' E 036°38'0 0.0
2017-Feb-02 21:31N 45°28' E 036°38'0 0.0
2017-Feb-02 20:28N 45°28' E 036°38'0 0.1
2017-Feb-02 19:31N 45°28' E 036°38'0 0.0
2017-Feb-02 18:31N 45°28' E 036°38'0 0.0
2017-Feb-02 17:31N 45°28' E 036°38'0 0.0
2017-Feb-02 16:31N 45°28' E 036°38'0 0.1
2017-Feb-02 15:25N 45°28' E 036°39'0 0.1
2017-Feb-02 14:13N 45°28' E 036°39'0 0.0
2017-Feb-02 13:25N 45°28' E 036°39'0 0.0
2017-Feb-02 12:31N 45°28' E 036°39'0 0.0
2017-Feb-02 11:28N 45°28' E 036°39'0 0.0
2017-Feb-02 09:28N 45°28' E 036°39'0 0.0
2017-Feb-02 06:25N 45°29' E 036°39'0 0.0
2017-Feb-02 05:22N 45°29' E 036°39'0 0.0
2017-Feb-02 04:31N 45°29' E 036°39'0 0.0
2017-Feb-02 03:31N 45°29' E 036°39'0 0.0
2017-Feb-02 02:31N 45°29' E 036°39'0 0.0
2017-Feb-02 01:25N 45°29' E 036°38'0 0.0
2017-Feb-01 23:31N 45°29' E 036°39'0 0.0
2017-Feb-01 20:10N 45°28' E 036°39'0 0.0
2017-Feb-01 14:25N 45°28' E 036°39'0 0.0
2017-Feb-01 12:31N 45°28' E 036°39'0 0.0
2017-Feb-01 11:31N 45°28' E 036°39'0 0.0
2017-Feb-01 10:31N 45°28' E 036°39'0 0.0
2017-Feb-01 09:31N 45°28' E 036°39'  

Dump ship's entire track history